Time;durP1;ratioP1;P1;durP2;ratioP2;P2;SDS_P1;SDS_P2;PMS_P1;PMS_P2;Temp;Humidity;BMP_temperature;BMP_pressure;BME280_temperature;BME280_humidity;BME280_pressure;Samples;Min_cycle;Max_cycle;Signal;HPM_P1;HPM_P2
2022/04/05 00:01:45;;;;;;;27.00;13.90;;;10.70;99.90;;;;;;5025846;28;20092;-84
2022/04/05 00:04:11;;;;;;;23.60;12.82;;;10.70;99.90;;;;;;5010484;28;20029;-85
2022/04/05 00:06:37;;;;;;;19.15;10.70;;;10.70;99.90;;;;;;5013139;28;20096;-85
2022/04/05 00:09:03;;;;;;;20.23;11.35;;;10.70;99.90;;;;;;5018530;28;20458;-86
2022/04/05 00:11:28;;;;;;;27.05;11.55;;;10.70;99.90;;;;;;5000387;28;20430;-85
2022/04/05 00:13:54;;;;;;;21.75;11.20;;;10.70;99.90;;;;;;5015306;28;20108;-84
2022/04/05 00:16:22;;;;;;;20.35;10.45;;;10.70;99.90;;;;;;5014772;28;20443;-85
2022/04/05 00:18:50;;;;;;;31.67;11.48;;;10.70;99.90;;;;;;5007829;28;20026;-84
2022/04/05 00:21:17;;;;;;;20.80;9.65;;;10.70;99.90;;;;;;5017134;28;20038;-85
2022/04/05 00:23:43;;;;;;;13.07;6.78;;;10.60;99.90;;;;;;5009734;28;20018;-85
2022/04/05 00:26:09;;;;;;;10.40;4.82;;;10.60;99.90;;;;;;5025165;28;20366;-85
2022/04/05 00:28:34;;;;;;;7.15;3.60;;;10.60;99.90;;;;;;5021432;28;20025;-85
2022/04/05 00:31:00;;;;;;;6.32;2.92;;;10.60;99.90;;;;;;4996216;28;20033;-85
2022/04/05 00:33:28;;;;;;;6.50;2.67;;;10.50;99.90;;;;;;5029345;28;20056;-85
2022/04/05 00:35:54;;;;;;;6.57;2.40;;;10.50;99.90;;;;;;5015930;28;20042;-85
2022/04/05 00:38:20;;;;;;;3.95;1.80;;;10.50;99.90;;;;;;5026584;28;20060;-85
2022/04/05 00:40:45;;;;;;;4.30;1.80;;;10.50;99.90;;;;;;5027503;28;20038;-85
2022/04/05 00:43:11;;;;;;;4.38;2.00;;;10.40;99.90;;;;;;5015747;28;20079;-84
2022/04/05 00:45:37;;;;;;;4.47;1.90;;;10.40;99.90;;;;;;5032525;28;20076;-85
2022/04/05 00:48:04;;;;;;;4.93;1.92;;;10.30;99.90;;;;;;5033187;28;20128;-85
2022/04/05 00:50:34;;;;;;;6.90;2.40;;;10.30;99.90;;;;;;5032461;28;20028;-85
2022/04/05 00:53:03;;;;;;;4.53;1.90;;;10.20;99.90;;;;;;5033211;28;20137;-85
2022/04/05 00:55:31;;;;;;;8.98;3.15;;;10.20;99.90;;;;;;5015504;28;20048;-85
2022/04/05 00:57:59;;;;;;;7.78;2.78;;;10.20;99.90;;;;;;5029895;28;20416;-84
2022/04/05 01:00:25;;;;;;;7.15;2.38;;;10.20;99.90;;;;;;5025554;28;20039;-85
2022/04/05 01:02:56;;;;;;;5.57;2.35;;;10.10;99.90;;;;;;5034409;28;20105;-85
2022/04/05 01:05:25;;;;;;;6.80;2.80;;;10.10;99.90;;;;;;5031918;28;20032;-86
2022/04/05 01:07:53;;;;;;;6.50;2.38;;;10.10;99.90;;;;;;5031045;28;20460;-85
2022/04/05 01:10:21;;;;;;;8.38;2.40;;;10.00;99.90;;;;;;5015135;28;20040;-84
2022/04/05 01:12:48;;;;;;;8.60;2.67;;;10.00;99.90;;;;;;5031637;28;20378;-84
2022/04/05 01:15:14;;;;;;;5.03;2.55;;;10.00;99.90;;;;;;5031920;28;20040;-85
2022/04/05 01:17:40;;;;;;;11.70;2.85;;;10.00;99.90;;;;;;5031092;28;20013;-86
2022/04/05 01:20:07;;;;;;;5.05;2.50;;;10.00;99.90;;;;;;5030580;28;20038;-85
2022/04/05 01:22:32;;;;;;;9.25;3.10;;;10.00;99.90;;;;;;5031568;28;20547;-85
2022/04/05 01:24:58;;;;;;;5.60;2.80;;;9.90;99.90;;;;;;5032299;28;20068;-86
2022/04/05 01:27:27;;;;;;;7.18;2.83;;;9.90;99.90;;;;;;5015700;28;20030;-86
2022/04/05 01:29:54;;;;;;;11.32;3.42;;;9.90;99.90;;;;;;5015904;28;20482;-85
2022/04/05 01:32:19;;;;;;;8.80;3.50;;;9.90;99.90;;;;;;5015358;28;20049;-85
2022/04/05 01:34:45;;;;;;;7.68;2.95;;;9.90;99.90;;;;;;5016650;28;20026;-85
2022/04/05 01:37:12;;;;;;;9.38;2.92;;;9.80;99.90;;;;;;5030914;28;20117;-86
2022/04/05 01:39:41;;;;;;;7.32;2.72;;;9.80;99.90;;;;;;5031062;28;20472;-85
2022/04/05 01:42:10;;;;;;;11.40;3.40;;;9.80;99.90;;;;;;5013259;28;20067;-84
2022/04/05 01:44:37;;;;;;;9.38;3.08;;;9.80;99.90;;;;;;5029301;28;20022;-84
2022/04/05 01:47:11;;;;;;;8.40;3.00;;;9.80;99.90;;;;;;5031944;28;20120;-84
2022/04/05 01:49:38;;;;;;;8.10;3.20;;;9.80;99.90;;;;;;5030413;28;20036;-84
2022/04/05 01:52:04;;;;;;;6.18;2.88;;;9.80;99.90;;;;;;5031495;28;20056;-85
2022/04/05 01:54:30;;;;;;;10.88;4.30;;;9.80;99.90;;;;;;5036200;28;20085;-85
2022/04/05 01:56:55;;;;;;;8.57;3.20;;;9.80;99.90;;;;;;5043151;28;20075;-85
2022/04/05 01:59:24;;;;;;;9.35;3.30;;;9.80;99.90;;;;;;5044020;28;20048;-84
2022/04/05 02:01:50;;;;;;;9.98;3.45;;;9.80;99.90;;;;;;5043464;28;20163;-84
2022/04/05 02:04:16;;;;;;;9.70;3.83;;;9.80;99.90;;;;;;5041860;28;20024;-84
2022/04/05 02:06:43;;;;;;;9.85;4.13;;;9.70;99.90;;;;;;5024594;28;20064;-85
2022/04/05 02:09:14;;;;;;;11.35;3.92;;;9.80;99.90;;;;;;5022681;28;20037;-84
2022/04/05 02:11:43;;;;;;;12.73;4.70;;;9.80;99.90;;;;;;5020839;28;20026;-84
2022/04/05 02:14:09;;;;;;;11.65;4.15;;;9.80;99.90;;;;;;5023629;28;20017;-84
2022/04/05 02:16:35;;;;;;;18.15;4.70;;;9.70;99.90;;;;;;5027242;28;20538;-84
2022/04/05 02:19:03;;;;;;;9.27;3.58;;;9.70;99.90;;;;;;5013475;28;20109;-84
2022/04/05 02:21:29;;;;;;;16.10;4.57;;;9.80;99.90;;;;;;5023406;28;20021;-84
2022/04/05 02:23:55;;;;;;;11.68;4.05;;;9.70;99.90;;;;;;5030650;28;20389;-84
2022/04/05 02:26:20;;;;;;;8.07;3.28;;;9.70;99.90;;;;;;5013194;28;20041;-84
2022/04/05 02:28:47;;;;;;;9.02;3.58;;;9.70;99.90;;;;;;5014182;28;20129;-84
2022/04/05 02:31:13;;;;;;;12.85;4.35;;;9.70;99.90;;;;;;5014235;28;20390;-84
2022/04/05 02:33:41;;;;;;;5.53;3.30;;;9.70;99.90;;;;;;5023434;28;20045;-85
2022/04/05 02:36:07;;;;;;;9.02;4.88;;;9.70;99.90;;;;;;5016119;28;20061;-85
2022/04/05 02:38:35;;;;;;;8.30;4.00;;;9.70;99.90;;;;;;5015138;28;20489;-84
2022/04/05 02:41:04;;;;;;;14.93;4.18;;;9.60;99.90;;;;;;5024592;28;20026;-85
2022/04/05 02:43:32;;;;;;;11.27;5.15;;;9.60;99.90;;;;;;5014962;28;20475;-84
2022/04/05 02:46:01;;;;;;;13.63;4.80;;;9.60;99.90;;;;;;5022513;28;20029;-84
2022/04/05 02:48:26;;;;;;;7.50;4.05;;;9.60;99.90;;;;;;5017490;28;20130;-84
2022/04/05 02:50:52;;;;;;;10.23;4.72;;;9.60;99.90;;;;;;5010283;28;20124;-85
2022/04/05 02:53:19;;;;;;;12.75;4.65;;;9.60;99.90;;;;;;5010595;28;20033;-85
2022/04/05 02:55:45;;;;;;;12.15;4.97;;;9.60;99.90;;;;;;5011019;28;20155;-84
2022/04/05 02:58:11;;;;;;;8.68;3.88;;;9.60;99.90;;;;;;5018307;28;20033;-85
2022/04/05 03:00:37;;;;;;;9.45;4.40;;;9.60;99.90;;;;;;5011071;28;20030;-85
2022/04/05 03:03:03;;;;;;;14.52;4.85;;;9.60;99.90;;;;;;5025600;28;20029;-84
2022/04/05 03:05:32;;;;;;;10.77;4.40;;;9.60;99.90;;;;;;5010008;28;20018;-84
2022/04/05 03:07:57;;;;;;;11.82;4.70;;;9.60;99.90;;;;;;5023629;28;20018;-84
2022/04/05 03:10:27;;;;;;;12.38;4.90;;;9.60;99.90;;;;;;5020231;28;20099;-85
2022/04/05 03:12:53;;;;;;;11.33;4.67;;;9.50;99.90;;;;;;5027101;28;20030;-85
2022/04/05 03:15:19;;;;;;;16.92;5.60;;;9.50;99.90;;;;;;5024841;28;20025;-84
2022/04/05 03:17:46;;;;;;;12.50;4.78;;;9.50;99.90;;;;;;5033671;28;20463;-84
2022/04/05 03:20:13;;;;;;;13.02;5.03;;;9.50;99.90;;;;;;5014653;28;20401;-84
2022/04/05 03:22:40;;;;;;;10.43;4.50;;;9.50;99.90;;;;;;5020235;28;20434;-86
2022/04/05 03:25:06;;;;;;;8.48;4.13;;;9.50;99.90;;;;;;5008574;28;20474;-85
2022/04/05 03:27:32;;;;;;;12.38;5.85;;;9.40;99.90;;;;;;5013297;28;20120;-84
2022/04/05 03:29:57;;;;;;;12.75;4.38;;;9.40;99.90;;;;;;5009619;28;20128;-84
2022/04/05 03:32:23;;;;;;;13.02;4.40;;;9.40;99.90;;;;;;5009552;28;20149;-84
2022/04/05 03:34:50;;;;;;;7.40;3.83;;;9.40;99.90;;;;;;5009262;28;20022;-84
2022/04/05 03:37:16;;;;;;;11.25;4.68;;;9.30;99.90;;;;;;5009494;28;20030;-85
2022/04/05 03:39:42;;;;;;;15.40;5.13;;;9.30;99.90;;;;;;5018310;28;20467;-84
2022/04/05 03:42:08;;;;;;;15.73;5.22;;;9.30;99.90;;;;;;5009192;28;20097;-85
2022/04/05 03:44:34;;;;;;;10.02;4.65;;;9.30;99.90;;;;;;5009982;28;20157;-85
2022/04/05 03:47:01;;;;;;;10.10;4.93;;;9.30;99.90;;;;;;5009024;28;20165;-84
2022/04/05 03:49:26;;;;;;;9.63;5.32;;;9.30;99.90;;;;;;5009916;28;20613;-85
2022/04/05 03:51:52;;;;;;;13.95;5.15;;;9.30;99.90;;;;;;5010325;28;20105;-85
2022/04/05 03:54:18;;;;;;;10.45;4.93;;;9.30;99.90;;;;;;5022580;28;20036;-85
2022/04/05 03:56:44;;;;;;;9.82;5.28;;;9.20;99.90;;;;;;5021755;28;20038;-86
2022/04/05 03:59:10;;;;;;;12.88;5.75;;;9.20;99.90;;;;;;5017687;28;20018;-85
2022/04/05 04:01:36;;;;;;;12.52;5.57;;;9.20;99.90;;;;;;5021197;28;20032;-85
2022/04/05 04:04:01;;;;;;;11.73;5.38;;;9.20;99.90;;;;;;5018836;28;20356;-85
2022/04/05 04:06:27;;;;;;;13.57;6.07;;;9.20;99.90;;;;;;5009782;28;20022;-85
2022/04/05 04:08:53;;;;;;;10.07;5.38;;;9.20;99.90;;;;;;5025907;28;20030;-84
2022/04/05 04:11:19;;;;;;;10.90;5.18;;;9.20;99.90;;;;;;5024611;28;20045;-85
2022/04/05 04:13:44;;;;;;;12.48;5.75;;;9.20;99.90;;;;;;5009995;28;20026;-85
2022/04/05 04:16:10;;;;;;;13.57;5.90;;;9.20;99.90;;;;;;5017209;28;20034;-85
2022/04/05 04:18:36;;;;;;;13.13;5.32;;;9.20;99.90;;;;;;5014383;28;20026;-86
2022/04/05 04:21:02;;;;;;;14.85;5.93;;;9.20;99.90;;;;;;5023097;28;20022;-85
2022/04/05 04:23:27;;;;;;;12.18;5.88;;;9.20;99.90;;;;;;5026899;28;20038;-85
2022/04/05 04:25:53;;;;;;;12.00;5.78;;;9.20;99.90;;;;;;5013814;28;20212;-86
2022/04/05 04:28:20;;;;;;;9.85;5.20;;;9.20;99.90;;;;;;5011332;28;20544;-86
2022/04/05 04:30:46;;;;;;;14.23;5.57;;;9.20;99.90;;;;;;5012890;28;20032;-85
2022/04/05 04:33:13;;;;;;;12.80;5.78;;;9.20;99.90;;;;;;5015271;28;20108;-85
2022/04/05 04:35:41;;;;;;;13.00;5.80;;;9.20;99.90;;;;;;5033997;28;20025;-85
2022/04/05 04:38:07;;;;;;;13.82;6.60;;;9.20;99.90;;;;;;5033123;28;20036;-84
2022/04/05 04:40:34;;;;;;;14.80;5.90;;;9.20;99.90;;;;;;5015632;28;20030;-85
2022/04/05 04:43:02;;;;;;;14.93;7.05;;;9.20;99.90;;;;;;5030780;28;20030;-85
2022/04/05 04:45:29;;;;;;;18.30;7.18;;;9.20;99.90;;;;;;5029132;28;20033;-85
2022/04/05 04:47:55;;;;;;;14.93;6.22;;;9.20;99.90;;;;;;5027568;28;20030;-85
2022/04/05 04:50:21;;;;;;;23.67;7.82;;;9.20;99.90;;;;;;5014628;28;20564;-85
2022/04/05 04:52:47;;;;;;;17.55;7.32;;;9.20;99.90;;;;;;5031926;28;20462;-85
2022/04/05 04:55:12;;;;;;;13.90;7.10;;;9.20;99.90;;;;;;5010987;28;20091;-85
2022/04/05 04:57:38;;;;;;;14.35;6.53;;;9.30;99.90;;;;;;5032384;28;20113;-85
2022/04/05 05:00:05;;;;;;;13.48;6.85;;;9.30;99.90;;;;;;5031946;28;20041;-85
2022/04/05 05:02:31;;;;;;;25.42;8.27;;;9.30;99.90;;;;;;5032529;28;20437;-86
2022/04/05 05:04:56;;;;;;;22.92;8.55;;;9.30;99.90;;;;;;5033015;28;20044;-85
2022/04/05 05:07:22;;;;;;;17.42;7.72;;;9.30;99.90;;;;;;5014901;28;20386;-85
2022/04/05 05:09:50;;;;;;;20.60;8.57;;;9.30;99.90;;;;;;5024069;28;20495;-86
2022/04/05 05:12:20;;;;;;;21.75;7.85;;;9.30;99.90;;;;;;5030819;28;20032;-86
2022/04/05 05:14:53;;;;;;;20.33;8.65;;;9.30;99.90;;;;;;5027809;28;20025;-87
2022/04/05 05:17:18;;;;;;;22.42;8.05;;;9.30;99.90;;;;;;5031686;28;20358;-86
2022/04/05 05:19:44;;;;;;;22.60;9.40;;;9.20;99.90;;;;;;5032277;28;20025;-86
2022/04/05 05:22:10;;;;;;;23.17;8.85;;;9.20;99.90;;;;;;5016651;28;20033;-86
2022/04/05 05:24:36;;;;;;;26.65;8.90;;;9.20;99.90;;;;;;5026075;28;20034;-86
2022/04/05 05:27:01;;;;;;;28.42;9.18;;;9.30;99.90;;;;;;5018431;28;20026;-87
2022/04/05 05:29:27;;;;;;;31.75;9.80;;;9.20;99.90;;;;;;5046458;28;20021;-87
2022/04/05 05:31:56;;;;;;;22.27;8.88;;;9.20;99.90;;;;;;5031728;28;20029;-86
2022/04/05 05:34:23;;;;;;;22.17;9.63;;;9.30;99.90;;;;;;5027372;28;20036;-86
2022/04/05 05:36:49;;;;;;;29.50;10.27;;;9.20;99.90;;;;;;5032245;28;20021;-86
2022/04/05 05:39:14;;;;;;;28.13;10.75;;;9.30;99.90;;;;;;5032096;28;20491;-87
2022/04/05 05:41:40;;;;;;;27.33;10.85;;;9.30;99.90;;;;;;5050032;28;20025;-87
2022/04/05 05:44:06;;;;;;;29.80;10.73;;;9.30;99.90;;;;;;5041158;28;20029;-87
2022/04/05 05:46:32;;;;;;;45.33;12.82;;;9.30;99.90;;;;;;5018093;28;20456;-86
2022/04/05 05:48:58;;;;;;;44.63;14.52;;;9.30;99.90;;;;;;5029596;28;20029;-86
2022/04/05 05:51:24;;;;;;;36.17;13.13;;;9.30;99.90;;;;;;5032943;28;20031;-85
2022/04/05 05:53:49;;;;;;;44.95;14.00;;;9.30;99.90;;;;;;5053127;28;20025;-86
2022/04/05 05:56:15;;;;;;;64.13;17.33;;;9.30;99.90;;;;;;5019828;28;20053;-87
2022/04/05 05:58:53;;;;;;;46.70;16.52;;;9.30;99.90;;;;;;5018598;28;20082;-87
2022/04/05 06:01:22;;;;;;;48.05;15.05;;;9.30;99.90;;;;;;5035925;28;20030;-87
2022/04/05 06:03:47;;;;;;;37.20;15.30;;;9.30;99.90;;;;;;5034780;28;20029;-88
2022/04/05 06:06:13;;;;;;;57.75;17.35;;;9.30;99.90;;;;;;5035070;28;20024;-87
2022/04/05 06:08:41;;;;;;;35.45;15.38;;;9.30;99.90;;;;;;5035158;28;20029;-87
2022/04/05 06:11:10;;;;;;;46.25;16.65;;;9.30;99.90;;;;;;5023032;28;20489;-87
2022/04/05 06:13:36;;;;;;;64.32;18.55;;;9.30;99.90;;;;;;5052842;28;20029;-87
2022/04/05 06:16:08;;;;;;;78.63;20.77;;;9.40;99.90;;;;;;5034563;28;20045;-87
2022/04/05 06:18:34;;;;;;;;;;;9.40;99.90;;;;;;5053190;28;20021;-86
2022/04/05 06:21:00;;;;;;;70.30;21.42;;;9.40;99.90;;;;;;5036195;28;19963;-87
2022/04/05 06:23:26;;;;;;;61.75;22.00;;;9.40;99.90;;;;;;5027722;28;20037;-87
2022/04/05 06:25:51;;;;;;;49.72;21.60;;;9.50;99.90;;;;;;5037760;28;20048;-87
2022/04/05 06:28:18;;;;;;;44.00;18.90;;;9.50;99.90;;;;;;5039960;28;20036;-86
2022/04/05 06:30:46;;;;;;;56.70;21.35;;;9.60;99.90;;;;;;5038376;28;20079;-87
2022/04/05 06:33:17;;;;;;;52.83;20.75;;;9.60;99.90;;;;;;5048062;28;20049;-87
2022/04/05 06:35:59;;;;;;;52.53;19.67;;;9.60;99.90;;;;;;5035114;28;20025;-88
2022/04/05 06:38:26;;;;;;;41.38;18.52;;;9.70;99.90;;;;;;5048270;28;20110;-87
2022/04/05 06:40:54;;;;;;;51.17;20.80;;;9.70;99.90;;;;;;5039925;28;20021;-86
2022/04/05 06:43:36;;;;;;;;;;;;;;;;;;;;;
2022/04/05 06:46:09;;;;;;;61.03;22.23;;;9.80;99.90;;;;;;5040474;28;20036;-87
2022/04/05 06:48:35;;;;;;;60.85;20.70;;;9.80;99.90;;;;;;5026326;28;20119;-86
2022/04/05 06:51:28;;;;;;;;;;;;;;;;;;;;;
2022/04/05 06:54:03;;;;;;;64.95;22.15;;;9.90;99.90;;;;;;5036727;28;20088;-87
2022/04/05 06:56:31;;;;;;;46.15;19.83;;;9.90;99.90;;;;;;5052712;28;20032;-86
2022/04/05 06:58:57;;;;;;;55.03;21.77;;;10.00;99.90;;;;;;5042385;28;20037;-86
2022/04/05 07:01:23;;;;;;;44.88;19.75;;;10.00;99.90;;;;;;5036740;28;20029;-87
2022/04/05 07:03:49;;;;;;;48.95;19.95;;;10.00;99.90;;;;;;5009588;28;20037;-87
2022/04/05 07:06:15;;;;;;;64.68;23.50;;;10.00;99.90;;;;;;5037565;28;20115;-87
2022/04/05 07:08:41;;;;;;;54.80;19.85;;;10.10;99.90;;;;;;5035743;28;20068;-87
2022/04/05 07:11:07;;;;;;;48.88;20.23;;;10.10;99.90;;;;;;5035405;28;20071;-87
2022/04/05 07:13:33;;;;;;;59.00;20.60;;;10.10;99.90;;;;;;5036119;28;20057;-86
2022/04/05 07:15:58;;;;;;;40.58;17.17;;;10.10;99.90;;;;;;5035667;28;20418;-88
2022/04/05 07:18:24;;;;;;;56.97;18.95;;;10.10;99.90;;;;;;5036841;28;20032;-88
2022/04/05 07:20:52;;;;;;;48.33;17.88;;;10.10;99.90;;;;;;5026218;28;20489;-88
2022/04/05 07:23:18;;;;;;;39.30;16.95;;;10.20;99.90;;;;;;5034276;28;20035;-88
2022/04/05 07:25:46;;;;;;;38.60;16.40;;;10.20;99.90;;;;;;5023391;28;20025;-88
2022/04/05 07:28:12;;;;;;;53.45;19.52;;;10.20;99.90;;;;;;5035511;28;20087;-88
2022/04/05 07:30:40;;;;;;;37.20;16.70;;;10.20;99.90;;;;;;5035653;28;20029;-88
2022/04/05 07:33:19;;;;;;;;;;;;;;;;;;;;;
2022/04/05 07:35:47;;;;;;;46.05;16.23;;;10.20;99.90;;;;;;5053212;28;20461;-88
2022/04/05 07:38:13;;;;;;;35.45;16.40;;;10.30;99.90;;;;;;5034475;28;20025;-87
2022/04/05 07:40:48;;;;;;;33.88;14.35;;;10.30;99.90;;;;;;5037525;28;20078;-88
2022/04/05 07:43:21;;;;;;;46.80;16.55;;;10.30;99.90;;;;;;5025697;28;20125;-88
2022/04/05 07:45:50;;;;;;;44.22;15.57;;;10.30;99.90;;;;;;5037053;28;20103;-88
2022/04/05 07:48:21;;;;;;;36.47;14.88;;;10.30;99.90;;;;;;5037414;28;20035;-88
2022/04/05 07:50:48;;;;;;;27.30;12.82;;;10.40;99.90;;;;;;5037922;28;20079;-88
2022/04/05 07:53:16;;;;;;;34.30;14.68;;;10.40;99.90;;;;;;5052757;28;20033;-87
2022/04/05 07:55:42;;;;;;;34.20;14.60;;;10.40;99.90;;;;;;5036166;28;20021;-87
2022/04/05 07:58:08;;;;;;;33.72;14.18;;;10.50;99.90;;;;;;5037261;28;20032;-88
2022/04/05 08:00:35;;;;;;;34.67;15.55;;;10.50;99.90;;;;;;5055472;28;20029;-88
2022/04/05 08:03:00;;;;;;;34.72;15.10;;;10.50;99.90;;;;;;5038105;28;20025;-87
2022/04/05 08:05:29;;;;;;;38.22;13.98;;;10.50;99.90;;;;;;5055311;28;20024;-88
2022/04/05 08:07:55;;;;;;;34.78;14.57;;;10.50;99.90;;;;;;5021842;28;20025;-86
2022/04/05 08:10:24;;;;;;;39.60;15.15;;;10.50;99.90;;;;;;5035800;28;20029;-88
2022/04/05 08:12:52;;;;;;;34.92;13.90;;;10.50;99.90;;;;;;5021723;28;20028;-86
2022/04/05 08:15:20;;;;;;;43.38;14.52;;;10.60;99.90;;;;;;5036575;28;20409;-88
2022/04/05 08:17:46;;;;;;;34.33;14.80;;;10.60;99.90;;;;;;5054781;28;20021;-89
2022/04/05 08:20:13;;;;;;;34.63;13.30;;;10.60;99.90;;;;;;5036973;28;20052;-90
2022/04/05 08:22:42;;;;;;;30.63;12.82;;;10.60;99.90;;;;;;5036357;28;20071;-87
2022/04/05 08:25:17;;;;;;;31.35;12.90;;;10.60;99.90;;;;;;5033119;28;20479;-87
2022/04/05 08:27:44;;;;;;;32.08;13.15;;;10.60;99.90;;;;;;5051211;28;20032;-88
2022/04/05 08:30:20;;;;;;;33.97;12.60;;;10.60;99.90;;;;;;5036247;28;20033;-88
2022/04/05 08:32:47;;;;;;;32.75;13.45;;;10.60;99.90;;;;;;5036868;28;20127;-88
2022/04/05 08:35:18;;;;;;;24.92;12.50;;;10.70;99.90;;;;;;5054413;28;20470;-88
2022/04/05 08:37:45;;;;;;;32.25;13.48;;;10.70;99.90;;;;;;5034567;28;20117;-88
2022/04/05 08:40:14;;;;;;;28.10;13.25;;;10.70;99.90;;;;;;5036039;28;20128;-87
2022/04/05 08:42:47;;;;;;;26.13;12.57;;;10.70;99.90;;;;;;5036971;28;20025;-88
2022/04/05 08:45:18;;;;;;;28.25;14.02;;;10.70;99.90;;;;;;5032093;28;20163;-87
2022/04/05 08:47:53;;;;;;;32.67;13.82;;;10.70;99.90;;;;;;5032896;28;20037;-87
2022/04/05 08:50:30;;;;;;;35.67;15.02;;;10.80;99.90;;;;;;5030320;28;20174;-87
2022/04/05 08:53:00;;;;;;;27.65;12.85;;;10.80;99.90;;;;;;5033933;28;20504;-86
2022/04/05 08:55:28;;;;;;;28.20;13.15;;;10.80;99.90;;;;;;5036897;28;20028;-87
2022/04/05 08:58:04;;;;;;;29.85;12.85;;;10.80;99.90;;;;;;5035672;28;20025;-90
2022/04/05 09:00:38;;;;;;;29.75;13.13;;;10.90;99.90;;;;;;5038373;28;20084;-87
2022/04/05 09:03:05;;;;;;;28.10;12.55;;;10.90;99.90;;;;;;5041372;28;20029;-85
2022/04/05 09:05:37;;;;;;;27.27;12.38;;;10.90;99.90;;;;;;5048538;28;20039;-86
2022/04/05 09:08:17;;;;;;;24.60;12.32;;;10.90;99.90;;;;;;5040826;28;20465;-85
2022/04/05 09:10:50;;;;;;;21.50;11.57;;;11.00;99.90;;;;;;5052867;28;20044;-86
2022/04/05 09:13:26;;;;;;;29.05;13.88;;;11.00;99.90;;;;;;5044750;28;20066;-89
2022/04/05 09:15:59;;;;;;;27.17;12.93;;;11.00;99.90;;;;;;5021883;28;20033;-87
2022/04/05 09:18:38;;;;;;;24.67;11.90;;;11.00;99.90;;;;;;5037487;28;20029;-86
2022/04/05 09:21:05;;;;;;;28.67;13.00;;;11.00;99.90;;;;;;5055419;28;20028;-87
2022/04/05 09:23:41;;;;;;;24.23;11.50;;;11.10;99.90;;;;;;5036456;28;20056;-87
2022/04/05 09:26:18;;;;;;;30.55;13.00;;;11.10;99.90;;;;;;5054240;28;20021;-86
2022/04/05 09:28:48;;;;;;;22.50;11.70;;;11.10;99.90;;;;;;5033102;28;20048;-87
2022/04/05 09:31:22;;;;;;;21.50;11.82;;;11.20;99.90;;;;;;5050243;28;20029;-88
2022/04/05 09:34:19;;;;;;;;;;;;;;;;;;;;;
2022/04/05 09:36:51;;;;;;;22.58;11.77;;;11.20;99.90;;;;;;5053380;28;20027;-87
2022/04/05 09:39:23;;;;;;;19.88;10.77;;;11.30;99.90;;;;;;5034699;28;20535;-85
2022/04/05 09:42:09;;;;;;;23.25;11.13;;;11.30;99.90;;;;;;5034228;28;20082;-88
2022/04/05 09:44:38;;;;;;;20.98;10.38;;;11.30;99.90;;;;;;5049370;28;20036;-87
2022/04/05 09:47:14;;;;;;;24.55;11.85;;;11.30;99.90;;;;;;5033329;28;20025;-86
2022/04/05 09:49:43;;;;;;;21.02;11.27;;;11.30;99.90;;;;;;5051896;28;20110;-87
2022/04/05 09:52:31;;;;;;;18.95;9.30;;;11.30;99.90;;;;;;5035052;28;20017;-87
2022/04/05 09:55:21;;;;;;;19.13;9.50;;;11.30;99.90;;;;;;5027623;28;20021;-86
2022/04/05 09:57:50;;;;;;;15.40;7.78;;;11.30;99.90;;;;;;5030391;28;20116;-86
2022/04/05 10:00:21;;;;;;;15.95;8.68;;;11.40;99.90;;;;;;5019583;28;20083;-88
2022/04/05 10:03:08;;;;;;;14.45;8.30;;;11.40;99.90;;;;;;5052426;28;20064;-89
2022/04/05 10:05:36;;;;;;;12.85;7.45;;;11.40;99.90;;;;;;5022778;28;20493;-85
2022/04/05 10:08:08;;;;;;;12.77;7.63;;;11.40;99.90;;;;;;5035520;28;20016;-87
2022/04/05 10:10:34;;;;;;;11.93;6.80;;;11.40;99.90;;;;;;5049328;28;20041;-86
2022/04/05 10:13:02;;;;;;;13.27;8.23;;;11.40;99.90;;;;;;5016898;28;20178;-85
2022/04/05 10:15:29;;;;;;;17.42;8.93;;;11.40;99.90;;;;;;5020037;28;20025;-88
2022/04/05 10:18:06;;;;;;;20.40;10.23;;;11.40;99.90;;;;;;5019506;28;20458;-87
2022/04/05 10:20:35;;;;;;;17.10;10.32;;;11.40;99.90;;;;;;5034281;28;20108;-87
2022/04/05 10:23:04;;;;;;;17.65;10.40;;;11.40;99.90;;;;;;5033021;28;20029;-87
2022/04/05 10:25:34;;;;;;;20.70;11.93;;;11.40;99.90;;;;;;5034361;28;20393;-84
2022/04/05 10:28:00;;;;;;;19.48;12.05;;;11.40;99.90;;;;;;5023658;28;20033;-85
2022/04/05 10:30:59;;;;;;;19.80;11.50;;;11.40;99.90;;;;;;5033620;28;20124;-86
2022/04/05 10:33:54;;;;;;;20.08;11.40;;;11.50;99.90;;;;;;5032339;28;20052;-85
2022/04/05 10:36:27;;;;;;;17.92;12.25;;;11.50;99.90;;;;;;5044959;28;20029;-86
2022/04/05 10:39:25;;;;;;;18.67;12.27;;;11.50;99.90;;;;;;5033650;28;20017;-86
2022/04/05 10:42:10;;;;;;;24.88;14.07;;;11.50;99.90;;;;;;5011849;28;20075;-87
2022/04/05 10:44:38;;;;;;;24.10;14.85;;;11.50;99.90;;;;;;5015266;28;20037;-86
2022/04/05 10:47:06;;;;;;;22.95;13.95;;;11.60;99.90;;;;;;5025323;28;20118;-86
2022/04/05 10:49:46;;;;;;;23.20;13.57;;;11.50;99.90;;;;;;5017466;28;20481;-86
2022/04/05 10:52:31;;;;;;;27.73;14.20;;;11.60;99.90;;;;;;5019451;28;20127;-86
2022/04/05 10:55:04;;;;;;;24.20;14.18;;;11.60;99.90;;;;;;5033223;28;20576;-86
2022/04/05 10:57:40;;;;;;;20.55;12.63;;;11.60;99.90;;;;;;5033650;28;20033;-85
2022/04/05 11:00:14;;;;;;;23.08;12.73;;;11.60;99.90;;;;;;5017573;28;20080;-85
2022/04/05 11:03:01;;;;;;;20.20;12.32;;;11.60;99.90;;;;;;5033938;28;20075;-87
2022/04/05 11:05:36;;;;;;;19.08;12.15;;;11.60;99.90;;;;;;5030906;28;20438;-85
2022/04/05 11:08:16;;;;;;;21.30;13.00;;;11.60;99.90;;;;;;5052474;28;20032;-87
2022/04/05 11:10:45;;;;;;;27.13;14.07;;;11.60;99.90;;;;;;5033142;28;20029;-87
2022/04/05 11:13:27;;;;;;;21.00;12.07;;;11.60;99.90;;;;;;5033664;28;20359;-86
2022/04/05 11:15:54;;;;;;;23.92;15.20;;;11.60;99.90;;;;;;5030089;28;20029;-87
2022/04/05 11:18:23;;;;;;;23.75;14.82;;;11.60;99.90;;;;;;5052041;28;20079;-87
2022/04/05 11:20:51;;;;;;;20.10;12.30;;;11.70;99.90;;;;;;5033312;28;20017;-88
2022/04/05 11:23:19;;;;;;;20.50;13.57;;;11.70;99.90;;;;;;5033132;28;20033;-88
2022/04/05 11:25:46;;;;;;;19.30;11.98;;;11.70;99.90;;;;;;5051264;28;20043;-87
2022/04/05 11:28:19;;;;;;;25.27;13.80;;;11.70;99.90;;;;;;5017303;28;20115;-86
2022/04/05 11:31:02;;;;;;;20.98;11.73;;;11.70;99.90;;;;;;5018619;28;20033;-88
2022/04/05 11:33:31;;;;;;;24.52;11.93;;;11.70;99.90;;;;;;5016518;28;20373;-88
2022/04/05 11:36:04;;;;;;;21.00;11.80;;;11.70;99.90;;;;;;5033885;28;20027;-86
2022/04/05 11:38:31;;;;;;;20.02;11.45;;;11.70;99.90;;;;;;5052832;28;20024;-88
2022/04/05 11:41:08;;;;;;;22.77;12.35;;;11.70;99.90;;;;;;5052529;28;20075;-86
2022/04/05 11:43:42;;;;;;;24.50;12.52;;;11.80;99.90;;;;;;5027910;28;20029;-88
2022/04/05 11:46:27;;;;;;;20.92;11.90;;;11.80;99.90;;;;;;5032878;28;20018;-87
2022/04/05 11:48:56;;;;;;;24.67;14.07;;;11.80;99.90;;;;;;5032166;28;20024;-86
2022/04/05 11:51:25;;;;;;;27.70;15.55;;;11.90;99.90;;;;;;5033437;28;20061;-86
2022/04/05 11:54:01;;;;;;;26.92;15.25;;;11.90;99.90;;;;;;5034343;28;20115;-87
2022/04/05 11:56:27;;;;;;;19.88;14.50;;;11.90;99.90;;;;;;5033013;28;20013;-87
2022/04/05 11:59:04;;;;;;;24.25;15.30;;;11.90;99.90;;;;;;5032232;28;20168;-87
2022/04/05 12:01:36;;;;;;;23.67;15.52;;;11.90;99.90;;;;;;5050298;28;20021;-88
2022/04/05 12:04:10;;;;;;;20.30;13.93;;;11.90;99.90;;;;;;5032635;28;20408;-86
2022/04/05 12:06:39;;;;;;;22.30;14.00;;;11.90;99.90;;;;;;5015747;28;20036;-87
2022/04/05 12:09:10;;;;;;;20.08;14.85;;;11.90;99.90;;;;;;5047805;28;20096;-85
2022/04/05 12:11:46;;;;;;;;;;;11.90;99.90;;;;;;5032456;28;20024;-85
2022/04/05 12:14:14;;;;;;;23.35;14.35;;;11.90;99.90;;;;;;5048012;28;19992;-86
2022/04/05 12:16:47;;;;;;;27.42;15.20;;;11.90;99.90;;;;;;5033142;28;20021;-86
2022/04/05 12:19:21;;;;;;;20.33;14.50;;;11.90;99.90;;;;;;5051734;28;20025;-86
2022/04/05 12:21:57;;;;;;;21.92;14.80;;;11.90;99.90;;;;;;5031906;28;20116;-85
2022/04/05 12:24:24;;;;;;;23.02;13.63;;;12.00;99.90;;;;;;5032803;28;20041;-87
2022/04/05 12:26:51;;;;;;;23.83;13.15;;;12.00;99.90;;;;;;5026652;28;20021;-87
2022/04/05 12:29:17;;;;;;;20.90;13.18;;;12.10;99.90;;;;;;5056462;28;20043;-85
2022/04/05 12:31:47;;;;;;;15.40;11.63;;;12.20;99.90;;;;;;5060247;28;20072;-86
2022/04/05 12:34:18;;;;;;;17.63;11.18;;;12.20;99.90;;;;;;5044351;28;20059;-86
2022/04/05 12:36:55;;;;;;;19.38;11.13;;;12.30;99.90;;;;;;5057718;28;20509;-86
2022/04/05 12:39:26;;;;;;;14.10;10.25;;;12.30;99.90;;;;;;5058323;28;20036;-86
2022/04/05 12:42:00;;;;;;;14.63;11.15;;;12.30;99.90;;;;;;5057567;28;20037;-86
2022/04/05 12:44:39;;;;;;;16.80;12.18;;;12.30;99.90;;;;;;5048030;28;20593;-87
2022/04/05 12:47:32;;;;;;;15.02;11.50;;;12.30;99.90;;;;;;5034348;28;20033;-85
2022/04/05 12:50:11;;;;;;;18.23;15.40;;;12.30;99.90;;;;;;5035176;28;20100;-86
2022/04/05 12:52:37;;;;;;;20.25;16.70;;;12.20;99.90;;;;;;5036164;28;20032;-88
2022/04/05 12:55:18;;;;;;;22.88;18.15;;;12.20;99.90;;;;;;5039893;28;20021;-88